createdAt,value
2022-11-01T00:02:16.702Z,87.08
2022-11-01T00:04:46.671Z,86.49
2022-11-01T00:07:15.283Z,86.57
2022-11-01T00:09:44.045Z,86.27
2022-11-01T00:12:12.658Z,86.70
2022-11-01T00:14:41.339Z,87.02
2022-11-01T00:17:09.994Z,86.61
2022-11-01T00:19:38.583Z,86.65
2022-11-01T00:22:08.608Z,86.69
2022-11-01T00:24:37.246Z,87.03
2022-11-01T00:27:05.908Z,86.99
2022-11-01T00:29:34.521Z,86.95
2022-11-01T00:32:03.060Z,86.57
2022-11-01T00:34:31.750Z,85.81
2022-11-01T00:37:00.346Z,85.94
2022-11-01T00:39:31.420Z,86.33
2022-11-01T00:42:00.140Z,86.34
2022-11-01T00:44:28.774Z,85.68
2022-11-01T00:46:57.506Z,85.83
2022-11-01T00:49:26.167Z,85.39
2022-11-01T00:51:54.892Z,84.92
2022-11-01T00:54:23.714Z,84.89
2022-11-01T00:56:53.737Z,85.69
2022-11-01T00:59:22.353Z,85.29
2022-11-01T01:01:51.064Z,85.16
2022-11-01T01:04:19.859Z,85.25
2022-11-01T01:06:48.463Z,85.07
2022-11-01T01:09:17.082Z,84.56
2022-11-01T01:11:45.657Z,84.21
2022-11-01T01:14:15.696Z,84.97
2022-11-01T01:16:44.288Z,85.20
2022-11-01T01:19:12.887Z,85.46
2022-11-01T01:21:41.529Z,85.04
2022-11-01T01:24:10.384Z,85.01
2022-11-01T01:26:39.460Z,84.84
2022-11-01T01:29:08.035Z,84.60
2022-11-01T01:31:38.102Z,84.37
2022-11-01T01:34:07.162Z,84.27
2022-11-01T01:36:35.950Z,83.98
2022-11-01T01:39:04.597Z,84.06
2022-11-01T01:41:50.337Z,84.91
2022-11-01T01:45:16.559Z,85.10
2022-11-01T01:47:50.862Z,85.30
2022-11-01T01:50:29.719Z,85.06
2022-11-01T01:53:06.510Z,85.58
2022-11-01T01:55:43.002Z,84.78
2022-11-01T01:58:15.932Z,85.28
2022-11-01T02:00:46.069Z,84.88
2022-11-01T02:03:16.930Z,84.98
2022-11-01T02:05:53.272Z,85.02
2022-11-01T02:08:28.343Z,84.79
2022-11-01T02:11:01.786Z,84.48
2022-11-01T02:13:31.493Z,85.50
2022-11-01T02:16:40.117Z,84.91
2022-11-01T02:19:58.985Z,85.20
2022-11-01T02:22:47.316Z,85.49
2022-11-01T02:25:43.743Z,85.50
2022-11-01T02:28:38.337Z,85.17
2022-11-01T02:31:40.469Z,85.37
2022-11-01T02:34:20.152Z,85.03
2022-11-01T02:36:59.194Z,84.93
2022-11-01T02:39:33.801Z,85.28
2022-11-01T02:42:11.331Z,85.29
2022-11-01T02:44:47.733Z,85.10
2022-11-01T02:47:17.575Z,84.81
2022-11-01T02:49:52.248Z,84.49
2022-11-01T02:52:26.183Z,84.73
2022-11-01T02:54:59.255Z,84.43
2022-11-01T02:57:36.015Z,84.36
2022-11-01T03:00:23.465Z,84.09
2022-11-01T03:03:00.888Z,84.23
2022-11-01T03:05:54.311Z,83.24
2022-11-01T03:08:28.716Z,83.51
2022-11-01T03:11:08.427Z,83.80
2022-11-01T03:13:57.650Z,83.63
2022-11-01T03:16:34.821Z,84.24
2022-11-01T03:19:25.970Z,83.86
2022-11-01T03:22:06.751Z,84.24
2022-11-01T03:24:46.571Z,84.16
2022-11-01T03:27:25.479Z,84.23
2022-11-01T03:30:04.024Z,83.94
2022-11-01T03:32:42.234Z,84.56
2022-11-01T03:35:18.144Z,84.77
2022-11-01T03:37:54.391Z,85.14
2022-11-01T03:40:27.189Z,85.09
2022-11-01T03:43:02.502Z,85.29
2022-11-01T03:45:36.494Z,85.33
2022-11-01T03:48:05.925Z,85.05
2022-11-01T03:50:35.612Z,85.41
2022-11-01T03:53:05.844Z,85.48
2022-11-01T03:55:34.426Z,84.96
2022-11-01T03:58:03.450Z,84.74
2022-11-01T04:00:36.431Z,84.56
2022-11-01T04:03:05.784Z,84.31
2022-11-01T04:05:37.049Z,84.63
2022-11-01T04:08:09.092Z,84.41
2022-11-01T04:10:37.857Z,84.45
2022-11-01T04:13:06.790Z,84.78
2022-11-01T04:15:53.166Z,84.47
2022-11-01T04:18:42.121Z,84.45
2022-11-01T04:21:13.667Z,85.37
2022-11-01T04:23:44.211Z,84.78
2022-11-01T04:26:15.576Z,85.04
2022-11-01T04:28:45.026Z,85.22
2022-11-01T04:31:14.012Z,85.77
2022-11-01T04:33:42.573Z,85.69
2022-11-01T04:36:11.678Z,85.54
2022-11-01T04:38:40.352Z,85.70
2022-11-01T04:41:10.398Z,86.16
2022-11-01T04:43:39.027Z,85.53
2022-11-01T04:46:07.913Z,85.22
2022-11-01T04:48:36.555Z,85.17
2022-11-01T04:51:05.539Z,85.30
2022-11-01T04:53:34.118Z,85.76
2022-11-01T04:56:04.269Z,86.02
2022-11-01T04:58:39.980Z,85.38
2022-11-01T05:01:12.382Z,85.15
2022-11-01T05:03:41.096Z,85.13
2022-11-01T05:06:10.297Z,85.21
2022-11-01T05:08:39.438Z,85.04
2022-11-01T05:11:08.376Z,84.74
2022-11-01T05:13:38.562Z,85.17
2022-11-01T05:16:23.703Z,85.40
2022-11-01T05:18:52.940Z,85.56
2022-11-01T05:21:22.859Z,85.37
2022-11-01T05:23:52.390Z,84.87
2022-11-01T05:26:22.115Z,84.83
2022-11-01T05:28:57.345Z,85.59
2022-11-01T05:31:26.952Z,85.24
2022-11-01T05:33:55.705Z,85.67
2022-11-01T05:36:24.474Z,85.44
2022-11-01T05:38:56.770Z,85.50
2022-11-01T05:41:25.874Z,84.98
2022-11-01T05:44:00.614Z,85.38
2022-11-01T05:46:29.830Z,85.15
2022-11-01T05:48:58.979Z,85.03
2022-11-01T05:51:27.752Z,84.69
2022-11-01T05:53:56.391Z,85.03
2022-11-01T05:56:25.010Z,84.88
2022-11-01T05:58:55.141Z,85.10
2022-11-01T06:01:23.863Z,84.54
2022-11-01T06:03:52.553Z,84.69
2022-11-01T06:06:21.308Z,84.78
2022-11-01T06:08:49.846Z,84.69
2022-11-01T06:11:18.453Z,84.47
2022-11-01T06:13:47.042Z,85.03
2022-11-01T06:19:12.874Z,84.68
2022-11-01T06:21:41.474Z,84.79
2022-11-01T06:24:11.735Z,85.25
2022-11-01T06:26:40.595Z,85.02
2022-11-01T06:29:12.980Z,85.27
2022-11-01T06:31:41.980Z,85.69
2022-11-01T06:34:12.019Z,85.70
2022-11-01T06:36:40.698Z,85.78
2022-11-01T06:39:11.035Z,85.96
2022-11-01T06:41:39.644Z,85.87
2022-11-01T06:44:08.341Z,86.18
2022-11-01T06:46:36.991Z,86.02
2022-11-01T06:49:05.558Z,86.15
2022-11-01T06:51:35.811Z,86.17
2022-11-01T06:54:04.487Z,85.97
2022-11-01T06:56:33.134Z,86.74
2022-11-01T06:59:01.775Z,86.29
2022-11-01T07:01:30.872Z,86.80
2022-11-01T07:03:59.808Z,87.03
2022-11-01T07:06:31.066Z,86.62
2022-11-01T07:09:02.112Z,86.91
2022-11-01T07:11:31.836Z,86.86
2022-11-01T07:14:00.847Z,87.34
2022-11-01T07:16:29.935Z,87.18
2022-11-01T07:18:58.508Z,87.64
2022-11-01T07:21:27.443Z,88.89
2022-11-01T07:23:56.304Z,89.15
2022-11-01T07:26:26.381Z,89.56
2022-11-01T07:28:55.082Z,89.12
2022-11-01T07:31:24.460Z,90.13
2022-11-01T07:33:53.029Z,90.16
2022-11-01T07:36:21.758Z,89.88
2022-11-01T07:38:50.368Z,90.32
2022-11-01T07:41:18.962Z,90.97
2022-11-01T07:43:49.075Z,90.90
2022-11-01T07:46:17.715Z,91.62
2022-11-01T07:48:46.387Z,91.80
2022-11-01T07:51:15.827Z,91.71
2022-11-01T07:53:45.446Z,92.47
2022-11-01T07:56:14.032Z,92.43
2022-11-01T07:58:43.731Z,92.81
2022-11-01T08:01:13.914Z,93.07
2022-11-01T08:03:42.774Z,93.62
2022-11-01T08:06:11.440Z,93.49
2022-11-01T08:08:40.142Z,93.72
2022-11-01T08:11:08.929Z,93.87
2022-11-01T08:13:37.524Z,94.60
2022-11-01T08:16:07.296Z,94.67
2022-11-01T08:18:37.286Z,94.75
2022-11-01T08:21:06.523Z,94.88
2022-11-01T08:23:35.132Z,94.86
2022-11-01T08:26:05.022Z,95.18
2022-11-01T08:28:33.687Z,94.86
2022-11-01T08:31:08.175Z,95.21
2022-11-01T08:33:38.360Z,95.78
2022-11-01T08:36:07.607Z,96.19
2022-11-01T08:38:36.268Z,96.32
2022-11-01T08:41:05.037Z,96.16
2022-11-01T08:43:39.544Z,96.36
2022-11-01T08:46:10.776Z,96.45
2022-11-01T08:48:40.834Z,96.77
2022-11-01T08:51:09.653Z,96.60
2022-11-01T08:53:38.262Z,96.45
2022-11-01T08:56:07.929Z,96.99
2022-11-01T08:58:36.576Z,97.21
2022-11-01T09:01:05.409Z,97.57
2022-11-01T09:03:34.122Z,97.95
2022-11-01T09:06:04.161Z,98.23
2022-11-01T09:08:32.835Z,98.02
2022-11-01T09:11:01.726Z,97.91
2022-11-01T09:13:30.331Z,98.29
2022-11-01T09:16:01.458Z,99.49
2022-11-01T09:18:31.095Z,99.51
2022-11-01T09:21:00.165Z,100.00
2022-11-01T09:23:30.445Z,100.00
2022-11-01T09:26:04.016Z,100.00
2022-11-01T09:28:34.125Z,100.00
2022-11-01T09:31:19.508Z,100.00
2022-11-01T09:33:49.435Z,100.00
2022-11-01T09:36:18.157Z,100.00
2022-11-01T09:38:48.210Z,100.00
2022-11-01T09:41:32.047Z,100.00
2022-11-01T09:44:06.137Z,100.00
2022-11-01T09:46:46.776Z,100.00
2022-11-01T09:49:24.331Z,100.00
2022-11-01T09:51:53.386Z,100.00
2022-11-01T09:54:26.174Z,100.00
2022-11-01T09:57:10.374Z,100.00
2022-11-01T09:59:50.107Z,100.00
2022-11-01T10:03:06.850Z,100.00
2022-11-01T10:05:48.752Z,100.00
2022-11-01T10:08:43.191Z,100.00
2022-11-01T10:11:38.812Z,100.00
2022-11-01T10:14:26.842Z,100.00
2022-11-01T10:17:13.055Z,99.27
2022-11-01T10:19:46.456Z,99.03
2022-11-01T10:22:19.704Z,98.92
2022-11-01T10:24:56.938Z,98.48
2022-11-01T10:27:47.115Z,97.42
2022-11-01T10:30:18.867Z,97.06
2022-11-01T10:32:54.519Z,95.73
2022-11-01T10:35:30.526Z,95.19
2022-11-01T10:38:24.824Z,93.96
2022-11-01T10:41:03.952Z,93.58
2022-11-01T10:43:39.926Z,93.72
2022-11-01T10:46:13.449Z,92.90
2022-11-01T10:48:49.892Z,92.70
2022-11-01T10:51:27.668Z,92.38
2022-11-01T10:54:02.055Z,92.03
2022-11-01T10:56:41.869Z,92.13
2022-11-01T10:59:20.509Z,92.36
2022-11-01T11:01:51.571Z,91.70
2022-11-01T11:04:25.077Z,91.98
2022-11-01T11:06:54.296Z,92.16
2022-11-01T11:09:30.910Z,91.96
2022-11-01T11:18:06.512Z,88.18
2022-11-01T11:20:37.539Z,88.77
2022-11-01T11:23:13.429Z,89.34
2022-11-01T11:25:45.039Z,87.94
2022-11-01T11:28:27.034Z,87.14
2022-11-01T11:30:59.595Z,86.30
2022-11-01T11:33:29.816Z,86.48
2022-11-01T11:36:01.116Z,86.53
2022-11-01T11:38:44.583Z,85.32
2022-11-01T11:41:27.792Z,84.49
2022-11-01T11:43:56.813Z,83.88
2022-11-01T11:46:25.639Z,83.39
2022-11-01T11:48:59.279Z,82.53
2022-11-01T11:51:30.991Z,80.71
2022-11-01T11:54:24.988Z,80.02
2022-11-01T11:57:10.925Z,79.98
2022-11-01T11:59:40.868Z,79.94
2022-11-01T12:02:22.272Z,80.90
2022-11-01T12:04:59.208Z,79.97
2022-11-01T12:07:31.801Z,80.66
2022-11-01T12:10:04.404Z,82.23
2022-11-01T12:12:36.041Z,82.72
2022-11-01T12:15:26.637Z,82.16
2022-11-01T12:17:56.104Z,82.00
2022-11-01T12:20:36.426Z,81.74
2022-11-01T12:23:12.405Z,81.78
2022-11-01T12:25:46.094Z,81.47
2022-11-01T12:28:27.977Z,82.06
2022-11-01T12:31:06.088Z,81.95
2022-11-01T12:33:41.052Z,81.63
2022-11-01T12:36:15.344Z,81.24
2022-11-01T12:38:48.761Z,81.25
2022-11-01T12:41:30.952Z,80.95
2022-11-01T12:44:32.890Z,80.60
2022-11-01T12:47:11.888Z,80.61
2022-11-01T12:49:49.347Z,80.80
2022-11-01T12:52:31.395Z,80.74
2022-11-01T12:57:42.094Z,80.70
2022-11-01T13:00:17.496Z,80.49
2022-11-01T13:03:13.405Z,81.18
2022-11-01T13:05:56.678Z,80.67
2022-11-01T13:08:37.528Z,81.09
2022-11-01T13:11:20.067Z,81.33
2022-11-01T13:13:59.996Z,81.03
2022-11-01T13:16:36.632Z,81.32
2022-11-01T13:19:19.492Z,81.73
2022-11-01T13:21:55.619Z,82.10
2022-11-01T13:24:37.705Z,82.70
2022-11-01T13:27:15.642Z,83.02
2022-11-01T13:29:52.796Z,83.54
2022-11-01T13:32:35.646Z,83.64
2022-11-01T13:35:44.074Z,83.34
2022-11-01T13:38:25.920Z,83.64
2022-11-01T13:41:09.258Z,83.90
2022-11-01T13:43:43.075Z,83.50
2022-11-01T13:46:52.651Z,84.15
2022-11-01T13:50:20.833Z,84.74
2022-11-01T13:52:58.803Z,83.37
2022-11-01T13:55:36.689Z,83.21
2022-11-01T13:58:09.621Z,82.81
2022-11-01T14:00:45.178Z,82.85
2022-11-01T14:03:27.858Z,83.37
2022-11-01T14:09:32.746Z,83.47
2022-11-01T14:12:28.985Z,82.65
2022-11-01T14:15:22.777Z,82.23
2022-11-01T14:18:09.545Z,83.18
2022-11-01T14:20:48.158Z,83.07
2022-11-01T14:24:00.334Z,83.51
2022-11-01T14:27:02.156Z,83.52
2022-11-01T14:29:37.127Z,83.71
2022-11-01T14:32:11.845Z,84.02
2022-11-01T14:35:17.782Z,83.88
2022-11-01T14:37:52.548Z,84.06
2022-11-01T14:40:34.396Z,84.08
2022-11-01T14:43:16.034Z,84.48
2022-11-01T14:45:49.732Z,84.75
2022-11-01T14:48:29.985Z,85.29
2022-11-01T14:51:07.851Z,85.34
2022-11-01T14:53:40.108Z,85.40
2022-11-01T14:56:19.068Z,85.67
2022-11-01T14:58:47.969Z,85.78
2022-11-01T15:01:20.806Z,86.12
2022-11-01T15:04:06.036Z,86.28
2022-11-01T15:06:34.650Z,86.49
2022-11-01T15:09:04.296Z,86.58
2022-11-01T15:11:36.621Z,86.62
2022-11-01T15:14:09.420Z,87.39
2022-11-01T15:16:43.782Z,87.13
2022-11-01T15:19:20.090Z,87.44
2022-11-01T15:21:50.235Z,87.28
2022-11-01T15:24:29.971Z,87.40
2022-11-01T15:27:06.124Z,87.14
2022-11-01T15:29:39.077Z,87.48
2022-11-01T15:32:08.099Z,87.24
2022-11-01T15:34:39.812Z,87.70
2022-11-01T15:37:24.711Z,87.79
2022-11-01T15:39:54.057Z,87.75
2022-11-01T15:42:27.598Z,87.93
2022-11-01T15:44:59.997Z,87.73
2022-11-01T15:47:30.873Z,87.73
2022-11-01T15:50:07.634Z,87.90
2022-11-01T15:52:37.248Z,88.62
2022-11-01T15:55:19.138Z,88.00
2022-11-01T15:57:57.594Z,88.00
2022-11-01T16:09:04.367Z,87.52
2022-11-01T16:11:37.060Z,87.74
2022-11-01T16:14:19.974Z,87.99
2022-11-01T16:17:01.309Z,87.90
2022-11-01T16:19:38.085Z,87.69
2022-11-01T16:22:28.351Z,87.75
2022-11-01T16:25:16.422Z,88.01
2022-11-01T16:28:07.415Z,87.84
2022-11-01T16:30:40.842Z,87.75
2022-11-01T16:33:28.925Z,87.03
2022-11-01T16:36:00.188Z,87.53
2022-11-01T16:38:45.667Z,87.19
2022-11-01T16:41:21.561Z,87.08
2022-11-01T16:43:54.891Z,86.74
2022-11-01T16:46:30.339Z,87.23
2022-11-01T16:49:03.823Z,87.08
2022-11-01T16:51:33.745Z,87.08
2022-11-01T16:54:05.140Z,87.09
2022-11-01T16:56:42.292Z,86.62
2022-11-01T16:59:24.796Z,86.32
2022-11-01T17:01:57.856Z,86.62
2022-11-01T17:04:30.116Z,86.47
2022-11-01T17:06:59.635Z,86.45
2022-11-01T17:09:34.095Z,86.59
2022-11-01T17:12:04.450Z,86.48
2022-11-01T17:14:35.521Z,86.71
2022-11-01T17:17:08.899Z,86.68
2022-11-01T17:19:42.432Z,86.22
2022-11-01T17:22:19.232Z,86.09
2022-11-01T17:24:48.481Z,86.29
2022-11-01T17:27:19.141Z,85.89
2022-11-01T17:29:47.764Z,85.80
2022-11-01T17:32:16.920Z,86.15
2022-11-01T17:34:49.220Z,85.90
2022-11-01T17:37:18.879Z,86.00
2022-11-01T17:39:52.256Z,86.09
2022-11-01T17:42:22.611Z,85.93
2022-11-01T17:44:51.758Z,86.27
2022-11-01T17:47:20.488Z,85.98
2022-11-01T17:49:49.286Z,85.66
2022-11-01T17:52:18.239Z,85.92
2022-11-01T17:54:47.103Z,86.10
2022-11-01T17:57:15.866Z,85.77
2022-11-01T17:59:45.846Z,85.50
2022-11-01T18:02:14.841Z,85.52
2022-11-01T18:04:43.673Z,85.83
2022-11-01T18:07:13.954Z,85.58
2022-11-01T18:09:42.802Z,85.52
2022-11-01T18:12:20.199Z,85.51
2022-11-01T18:15:04.083Z,85.45
2022-11-01T18:17:50.223Z,85.65
2022-11-01T18:20:36.437Z,85.53
2022-11-01T18:23:11.970Z,85.54
2022-11-01T18:25:46.033Z,85.90
2022-11-01T18:28:18.417Z,85.48
2022-11-01T18:30:56.130Z,85.60
2022-11-01T18:33:38.220Z,85.44
2022-11-01T18:36:17.136Z,85.29
2022-11-01T18:38:58.652Z,85.79
2022-11-01T18:41:27.833Z,85.69
2022-11-01T18:43:56.519Z,85.76
2022-11-01T18:46:38.620Z,86.08
2022-11-01T18:49:13.974Z,85.81
2022-11-01T18:51:44.674Z,85.66
2022-11-01T18:54:26.066Z,85.75
2022-11-01T18:56:58.360Z,86.17
2022-11-01T18:59:31.164Z,86.30
2022-11-01T19:02:14.019Z,86.68
2022-11-01T19:04:44.262Z,86.90
2022-11-01T19:07:15.846Z,86.62
2022-11-01T19:09:56.067Z,85.99
2022-11-01T19:12:32.750Z,86.12
2022-11-01T19:15:08.510Z,85.33
2022-11-01T19:17:43.498Z,85.97
2022-11-01T19:20:27.884Z,86.28
2022-11-01T19:23:00.573Z,86.49
2022-11-01T19:25:33.405Z,87.07
2022-11-01T19:28:11.509Z,86.91
2022-11-01T19:30:40.437Z,87.08
2022-11-01T19:33:27.308Z,87.39
2022-11-01T19:35:58.534Z,87.72
2022-11-01T19:38:27.560Z,87.53
2022-11-01T19:40:56.675Z,88.23
2022-11-01T19:43:29.230Z,87.92
2022-11-01T19:45:59.716Z,88.47
2022-11-01T19:48:33.343Z,88.71
2022-11-01T19:51:02.073Z,88.60
2022-11-01T19:53:35.013Z,88.24
2022-11-01T19:56:06.247Z,88.07
2022-11-01T19:58:44.119Z,87.39
2022-11-01T20:01:40.853Z,88.09
2022-11-01T20:04:27.395Z,87.74
2022-11-01T20:07:01.424Z,87.46
2022-11-01T20:09:31.974Z,87.88
2022-11-01T20:12:00.947Z,87.46
2022-11-01T20:14:29.772Z,87.73
2022-11-01T20:16:58.584Z,88.01
2022-11-01T20:22:39.486Z,87.60
2022-11-01T20:25:09.289Z,87.48
2022-11-01T20:27:37.297Z,88.29
2022-11-01T20:30:06.474Z,87.86
2022-11-01T20:32:37.520Z,87.48
2022-11-01T20:35:07.556Z,87.35
2022-11-01T20:37:38.189Z,87.95
2022-11-01T20:40:11.012Z,87.87
2022-11-01T20:42:40.198Z,88.59
2022-11-01T20:45:09.729Z,88.53
2022-11-01T20:47:41.451Z,88.94
2022-11-01T20:50:17.130Z,88.88
2022-11-01T20:52:46.126Z,88.73
2022-11-01T20:55:16.605Z,88.75
2022-11-01T20:57:45.443Z,88.75
2022-11-01T21:00:18.337Z,88.57
2022-11-01T21:02:48.088Z,88.27
2022-11-01T21:05:26.174Z,88.13
2022-11-01T21:07:59.839Z,87.51
2022-11-01T21:10:35.638Z,87.30
2022-11-01T21:13:21.343Z,87.60
2022-11-01T21:15:51.199Z,87.41
2022-11-01T21:18:39.175Z,87.03
2022-11-01T21:21:33.603Z,86.92
2022-11-01T21:24:27.415Z,86.90
2022-11-01T21:27:24.145Z,86.56
2022-11-01T21:29:55.807Z,86.29
2022-11-01T21:32:29.873Z,86.46
2022-11-01T21:34:59.321Z,86.16
2022-11-01T21:37:31.050Z,85.86
2022-11-01T21:45:39.622Z,86.01
2022-11-01T21:48:27.913Z,85.66
2022-11-01T21:50:56.683Z,86.09
2022-11-01T21:53:25.361Z,85.87
2022-11-01T21:55:53.994Z,85.66
2022-11-01T21:58:22.964Z,85.58
2022-11-01T22:00:52.977Z,85.33
2022-11-01T22:03:21.645Z,85.13
2022-11-01T22:05:50.273Z,84.74
2022-11-01T22:08:18.907Z,84.71
2022-11-01T22:10:47.536Z,84.89
2022-11-01T22:13:16.331Z,84.66
2022-11-01T22:15:45.043Z,85.12
2022-11-01T22:18:14.962Z,84.29
2022-11-01T22:20:43.549Z,84.70
2022-11-01T22:23:12.176Z,84.49
2022-11-01T22:25:40.767Z,84.44
2022-11-01T22:28:09.312Z,84.50
2022-11-01T22:30:38.001Z,84.27
2022-11-01T22:33:09.109Z,84.22
2022-11-01T22:35:39.068Z,83.79
2022-11-01T22:38:18.536Z,83.70
2022-11-01T22:43:24.460Z,84.71
2022-11-01T22:45:54.191Z,84.81
2022-11-01T22:48:25.217Z,85.03
2022-11-01T22:50:55.231Z,85.19
2022-11-01T22:53:26.917Z,85.21
2022-11-01T22:55:56.762Z,84.80
2022-11-01T22:58:35.798Z,84.56
2022-11-01T23:01:23.571Z,84.06
2022-11-01T23:03:59.158Z,84.08
2022-11-01T23:06:35.562Z,84.33
2022-11-01T23:09:16.150Z,83.60
2022-11-01T23:12:06.782Z,83.95
2022-11-01T23:14:39.285Z,83.74
2022-11-01T23:17:22.724Z,84.00
2022-11-01T23:19:58.919Z,83.82
2022-11-01T23:22:36.705Z,83.74
2022-11-01T23:25:07.262Z,83.73
2022-11-01T23:27:36.202Z,83.68
2022-11-01T23:30:05.213Z,82.98
2022-11-01T23:32:33.901Z,82.74
2022-11-01T23:35:13.861Z,83.15
2022-11-01T23:37:45.078Z,82.96
2022-11-01T23:40:18.160Z,83.00
2022-11-01T23:42:48.417Z,83.66
2022-11-01T23:45:29.019Z,83.09
2022-11-01T23:47:57.896Z,82.88
2022-11-01T23:50:32.115Z,82.76
2022-11-01T23:53:07.652Z,83.03
2022-11-01T23:55:41.056Z,83.02
2022-11-01T23:58:14.778Z,82.41
